sensor_id;sensor_type;location;lat;lon;timestamp;pressure;altitude;pressure_sealevel;temperature;humidity
21803;BME280;18591;47.080;22.214;2022-07-29T00:00:23;99533.44;;;28.19;42.54
21803;BME280;18591;47.080;22.214;2022-07-29T00:02:25;99524.28;;;28.19;41.57
21803;BME280;18591;47.080;22.214;2022-07-29T00:04:28;99527.91;;;28.19;41.33
21803;BME280;18591;47.080;22.214;2022-07-29T00:06:30;99527.03;;;28.11;41.66
21803;BME280;18591;47.080;22.214;2022-07-29T00:08:32;99528.25;;;28.08;41.68
21803;BME280;18591;47.080;22.214;2022-07-29T00:10:34;99528.41;;;28.07;41.50
21803;BME280;18591;47.080;22.214;2022-07-29T00:12:36;99534.13;;;28.13;41.10
21803;BME280;18591;47.080;22.214;2022-07-29T00:14:38;99532.22;;;28.14;41.56
21803;BME280;18591;47.080;22.214;2022-07-29T00:16:40;99533.44;;;28.11;41.48
21803;BME280;18591;47.080;22.214;2022-07-29T00:18:42;99524.44;;;28.17;41.01
21803;BME280;18591;47.080;22.214;2022-07-29T00:20:44;99528.75;;;28.20;40.90
21803;BME280;18591;47.080;22.214;2022-07-29T00:22:46;99521.88;;;28.24;40.38
21803;BME280;18591;47.080;22.214;2022-07-29T00:24:48;99524.28;;;28.27;40.30
21803;BME280;18591;47.080;22.214;2022-07-29T00:26:50;99524.28;;;28.27;40.48
21803;BME280;18591;47.080;22.214;2022-07-29T00:28:52;99524.97;;;28.29;40.41
21803;BME280;18591;47.080;22.214;2022-07-29T00:31:14;99524.97;;;28.29;40.84
21803;BME280;18591;47.080;22.214;2022-07-29T00:33:16;99518.75;;;28.19;40.83
21803;BME280;18591;47.080;22.214;2022-07-29T00:35:19;99521.31;;;28.20;40.65
21803;BME280;18591;47.080;22.214;2022-07-29T00:37:39;99519.25;;;28.22;40.70
21803;BME280;18591;47.080;22.214;2022-07-29T00:39:41;99520.66;;;28.18;40.78
21803;BME280;18591;47.080;22.214;2022-07-29T00:41:43;99517.00;;;28.18;40.94
21803;BME280;18591;47.080;22.214;2022-07-29T00:43:45;99516.00;;;28.19;40.30
21803;BME280;18591;47.080;22.214;2022-07-29T00:45:47;99523.78;;;28.23;40.57
21803;BME280;18591;47.080;22.214;2022-07-29T00:47:49;99518.56;;;28.20;40.23
21803;BME280;18591;47.080;22.214;2022-07-29T00:49:51;99522.72;;;28.25;40.25
21803;BME280;18591;47.080;22.214;2022-07-29T00:51:53;99512.38;;;28.27;40.57
21803;BME280;18591;47.080;22.214;2022-07-29T00:53:55;99522.72;;;28.25;39.83
21803;BME280;18591;47.080;22.214;2022-07-29T00:55:58;99513.72;;;28.22;39.85
21803;BME280;18591;47.080;22.214;2022-07-29T00:58:00;99520.81;;;28.25;40.04
21803;BME280;18591;47.080;22.214;2022-07-29T01:00:07;99522.22;;;28.21;39.66
21803;BME280;18591;47.080;22.214;2022-07-29T01:02:10;99518.91;;;28.26;39.93
21803;BME280;18591;47.080;22.214;2022-07-29T01:04:12;99524.78;;;28.22;39.58
21803;BME280;18591;47.080;22.214;2022-07-29T01:06:16;99515.63;;;28.22;39.93
21803;BME280;18591;47.080;22.214;2022-07-29T01:08:20;99519.25;;;28.14;39.78
21803;BME280;18591;47.080;22.214;2022-07-29T01:10:22;99518.22;;;28.15;39.94
21803;BME280;18591;47.080;22.214;2022-07-29T01:12:25;99520.31;;;28.13;39.84
21803;BME280;18591;47.080;22.214;2022-07-29T01:14:28;99518.75;;;28.11;40.23
21803;BME280;18591;47.080;22.214;2022-07-29T01:16:32;99519.41;;;28.13;39.79
21803;BME280;18591;47.080;22.214;2022-07-29T01:18:40;99518.06;;;28.09;39.84
21803;BME280;18591;47.080;22.214;2022-07-29T01:28:08;99508.22;;;28.06;40.14
21803;BME280;18591;47.080;22.214;2022-07-29T01:30:17;99504.91;;;28.02;39.92
21803;BME280;18591;47.080;22.214;2022-07-29T01:32:26;99514.59;;;27.98;39.53
21803;BME280;18591;47.080;22.214;2022-07-29T01:34:38;99505.97;;;27.93;40.66
21803;BME280;18591;47.080;22.214;2022-07-29T01:36:47;99505.63;;;27.96;39.97
21803;BME280;18591;47.080;22.214;2022-07-29T01:38:59;99501.31;;;27.94;40.37
21803;BME280;18591;47.080;22.214;2022-07-29T01:41:12;99499.75;;;27.91;40.07
21803;BME280;18591;47.080;22.214;2022-07-29T01:43:22;99494.22;;;27.99;40.19
21803;BME280;18591;47.080;22.214;2022-07-29T01:45:43;99499.75;;;27.91;40.13
21803;BME280;18591;47.080;22.214;2022-07-29T01:47:56;99489.75;;;27.90;40.72
21803;BME280;18591;47.080;22.214;2022-07-29T01:50:04;99492.50;;;27.90;40.46
21803;BME280;18591;47.080;22.214;2022-07-29T01:52:13;99495.59;;;27.87;40.42
21803;BME280;18591;47.080;22.214;2022-07-29T01:54:37;99489.91;;;27.89;41.03
21803;BME280;18591;47.080;22.214;2022-07-29T01:56:42;99486.44;;;27.87;40.33
21803;BME280;18591;47.080;22.214;2022-07-29T01:58:45;99482.50;;;27.89;40.94
21803;BME280;18591;47.080;22.214;2022-07-29T02:00:50;99484.38;;;27.89;41.15
21803;BME280;18591;47.080;22.214;2022-07-29T02:02:54;99489.06;;;27.88;40.56
21803;BME280;18591;47.080;22.214;2022-07-29T02:05:00;99483.88;;;27.85;40.61
21803;BME280;18591;47.080;22.214;2022-07-29T02:07:05;99487.28;;;27.79;41.47
21803;BME280;18591;47.080;22.214;2022-07-29T02:09:09;99481.41;;;27.74;41.84
21803;BME280;18591;47.080;22.214;2022-07-29T02:11:13;99482.75;;;27.62;42.24
21803;BME280;18591;47.080;22.214;2022-07-29T02:13:16;99486.03;;;27.57;41.54
21803;BME280;18591;47.080;22.214;2022-07-29T02:15:20;99484.66;;;27.61;41.77
21803;BME280;18591;47.080;22.214;2022-07-29T02:17:35;99478.63;;;27.57;41.36
21803;BME280;18591;47.080;22.214;2022-07-29T02:19:43;99479.69;;;27.65;41.31
21803;BME280;18591;47.080;22.214;2022-07-29T02:21:46;99480.34;;;27.67;41.26
21803;BME280;18591;47.080;22.214;2022-07-29T02:23:50;99472.63;;;27.70;41.12
21803;BME280;18591;47.080;22.214;2022-07-29T02:25:55;99474.84;;;27.67;40.94
21803;BME280;18591;47.080;22.214;2022-07-29T02:27:58;99483.81;;;27.69;41.26
21803;BME280;18591;47.080;22.214;2022-07-29T02:30:03;99474.31;;;27.71;41.35
21803;BME280;18591;47.080;22.214;2022-07-29T02:32:06;99475.38;;;27.70;40.68
21803;BME280;18591;47.080;22.214;2022-07-29T02:34:11;99482.78;;;27.70;41.20
21803;BME280;18591;47.080;22.214;2022-07-29T02:36:15;99480.34;;;27.67;41.21
21803;BME280;18591;47.080;22.214;2022-07-29T02:38:18;99486.75;;;27.67;41.13
21803;BME280;18591;47.080;22.214;2022-07-29T02:40:41;99488.81;;;27.65;41.19
21803;BME280;18591;47.080;22.214;2022-07-29T02:42:45;99494.34;;;27.65;40.98
21803;BME280;18591;47.080;22.214;2022-07-29T02:44:48;99494.50;;;27.64;41.24
21803;BME280;18591;47.080;22.214;2022-07-29T02:49:37;99505.19;;;27.58;41.59
21803;BME280;18591;47.080;22.214;2022-07-29T02:51:43;99502.78;;;27.64;41.27
21803;BME280;18591;47.080;22.214;2022-07-29T02:53:50;99506.72;;;27.61;42.00
21803;BME280;18591;47.080;22.214;2022-07-29T02:55:57;99503.09;;;27.52;44.03
21803;BME280;18591;47.080;22.214;2022-07-29T02:58:03;99494.81;;;27.52;43.17
21803;BME280;18591;47.080;22.214;2022-07-29T03:00:08;99496.19;;;27.56;43.26
21803;BME280;18591;47.080;22.214;2022-07-29T03:02:13;99500.34;;;27.52;43.15
21803;BME280;18591;47.080;22.214;2022-07-29T03:04:17;99501.03;;;27.54;42.61
21803;BME280;18591;47.080;22.214;2022-07-29T03:06:23;99491.22;;;27.52;42.79
21803;BME280;18591;47.080;22.214;2022-07-29T03:08:39;99495.19;;;27.57;42.85
21803;BME280;18591;47.080;22.214;2022-07-29T03:10:44;99490.00;;;27.54;42.61
21803;BME280;18591;47.080;22.214;2022-07-29T03:12:47;99498.97;;;27.56;42.63
21803;BME280;18591;47.080;22.214;2022-07-29T03:14:51;99501.72;;;27.56;42.65
21803;BME280;18591;47.080;22.214;2022-07-29T03:16:53;99497.09;;;27.57;42.56
21803;BME280;18591;47.080;22.214;2022-07-29T03:18:55;99504.81;;;27.53;43.15
21803;BME280;18591;47.080;22.214;2022-07-29T03:20:57;99502.41;;;27.50;42.87
21803;BME280;18591;47.080;22.214;2022-07-29T03:23:00;99508.09;;;27.49;42.72
21803;BME280;18591;47.080;22.214;2022-07-29T03:25:11;99509.09;;;27.40;42.97
21803;BME280;18591;47.080;22.214;2022-07-29T03:27:13;99507.41;;;27.47;42.86
21803;BME280;18591;47.080;22.214;2022-07-29T03:29:15;99513.94;;;27.46;43.30
21803;BME280;18591;47.080;22.214;2022-07-29T03:31:20;99507.75;;;27.44;42.51
21803;BME280;18591;47.080;22.214;2022-07-29T03:33:22;99506.38;;;27.48;42.74
21803;BME280;18591;47.080;22.214;2022-07-29T03:35:24;99502.88;;;27.38;42.86
21803;BME280;18591;47.080;22.214;2022-07-29T03:37:26;99505.28;;;27.41;42.55
21803;BME280;18591;47.080;22.214;2022-07-29T03:39:31;99498.41;;;27.36;43.19
21803;BME280;18591;47.080;22.214;2022-07-29T03:41:36;99499.13;;;27.39;42.47
21803;BME280;18591;47.080;22.214;2022-07-29T03:43:41;99507.19;;;27.40;42.34
21803;BME280;18591;47.080;22.214;2022-07-29T03:45:52;99501.69;;;27.40;42.52
21803;BME280;18591;47.080;22.214;2022-07-29T03:47:59;99506.50;;;27.38;42.69
21803;BME280;18591;47.080;22.214;2022-07-29T03:50:06;99503.06;;;27.36;42.96
21803;BME280;18591;47.080;22.214;2022-07-29T03:52:11;99512.00;;;27.30;42.96
21803;BME280;18591;47.080;22.214;2022-07-29T03:54:13;99508.22;;;27.31;42.62
21803;BME280;18591;47.080;22.214;2022-07-29T03:56:16;99519.19;;;27.23;42.95
21803;BME280;18591;47.080;22.214;2022-07-29T03:58:23;99519.72;;;27.18;43.22
21803;BME280;18591;47.080;22.214;2022-07-29T04:00:28;99523.16;;;27.20;43.01
21803;BME280;18591;47.080;22.214;2022-07-29T04:02:31;99523.16;;;27.20;42.96
21803;BME280;18591;47.080;22.214;2022-07-29T04:04:34;99520.75;;;27.25;43.13
21803;BME280;18591;47.080;22.214;2022-07-29T04:06:44;99521.75;;;27.16;43.20
21803;BME280;18591;47.080;22.214;2022-07-29T04:08:48;99512.19;;;27.28;42.96
21803;BME280;18591;47.080;22.214;2022-07-29T04:10:50;99520.97;;;27.32;42.96
21803;BME280;18591;47.080;22.214;2022-07-29T04:12:53;99516.66;;;27.29;43.22
21803;BME280;18591;47.080;22.214;2022-07-29T04:14:55;99524.59;;;27.32;43.65
21803;BME280;18591;47.080;22.214;2022-07-29T04:16:57;99515.44;;;27.24;44.12
21803;BME280;18591;47.080;22.214;2022-07-29T04:18:59;99516.63;;;27.21;44.48
21803;BME280;18591;47.080;22.214;2022-07-29T04:21:01;99515.38;;;27.15;44.73
21803;BME280;18591;47.080;22.214;2022-07-29T04:23:05;99523.56;;;27.07;45.42
21803;BME280;18591;47.080;22.214;2022-07-29T04:25:07;99519.25;;;27.05;44.98
21803;BME280;18591;47.080;22.214;2022-07-29T04:27:10;99515.63;;;27.04;44.85
21803;BME280;18591;47.080;22.214;2022-07-29T04:29:12;99517.50;;;26.96;45.66
21803;BME280;18591;47.080;22.214;2022-07-29T04:31:15;99521.81;;;26.98;45.15
21803;BME280;18591;47.080;22.214;2022-07-29T04:33:19;99526.47;;;26.98;45.41
21803;BME280;18591;47.080;22.214;2022-07-29T04:35:25;99522.16;;;26.95;45.24
21803;BME280;18591;47.080;22.214;2022-07-29T04:37:27;99526.63;;;26.96;45.42
21803;BME280;18591;47.080;22.214;2022-07-29T04:39:29;99524.91;;;26.95;45.36
21803;BME280;18591;47.080;22.214;2022-07-29T04:41:31;99523.53;;;26.99;45.28
21803;BME280;18591;47.080;22.214;2022-07-29T04:43:36;99527.16;;;27.00;45.26
21803;BME280;18591;47.080;22.214;2022-07-29T04:45:38;99528.03;;;27.00;45.55
21803;BME280;18591;47.080;22.214;2022-07-29T04:47:40;99534.69;;;26.89;45.99
21803;BME280;18591;47.080;22.214;2022-07-29T04:49:42;99529.50;;;26.86;45.82
21803;BME280;18591;47.080;22.214;2022-07-29T04:51:44;99529.34;;;26.88;45.37
21803;BME280;18591;47.080;22.214;2022-07-29T04:53:46;99527.13;;;26.91;45.35
21803;BME280;18591;47.080;22.214;2022-07-29T04:55:48;99525.88;;;26.86;46.09
21803;BME280;18591;47.080;22.214;2022-07-29T04:57:49;99525.03;;;26.85;nan
21803;BME280;18591;47.080;22.214;2022-07-29T04:59:52;99533.31;;;26.85;45.83
21803;BME280;18591;47.080;22.214;2022-07-29T05:01:53;99532.44;;;26.85;46.67
21803;BME280;18591;47.080;22.214;2022-07-29T05:03:55;99527.41;;;26.80;46.50
21803;BME280;18591;47.080;22.214;2022-07-29T05:06:01;99537.25;;;26.83;46.39
21803;BME280;18591;47.080;22.214;2022-07-29T05:08:03;99534.88;;;26.88;47.18
21803;BME280;18591;47.080;22.214;2022-07-29T05:10:05;99540.16;;;26.81;48.08
21803;BME280;18591;47.080;22.214;2022-07-29T05:12:07;99538.09;;;26.83;48.37
21803;BME280;18591;47.080;22.214;2022-07-29T05:14:09;99544.31;;;26.85;48.57
21803;BME280;18591;47.080;22.214;2022-07-29T05:16:11;99537.88;;;26.77;49.09
21803;BME280;18591;47.080;22.214;2022-07-29T05:18:13;99543.94;;;26.80;48.74
21803;BME280;18591;47.080;22.214;2022-07-29T05:20:15;99540.16;;;26.81;47.88
21803;BME280;18591;47.080;22.214;2022-07-29T05:22:18;99542.88;;;26.73;49.02
21803;BME280;18591;47.080;22.214;2022-07-29T05:24:21;99544.81;;;26.81;48.79
21803;BME280;18591;47.080;22.214;2022-07-29T05:26:22;99556.75;;;26.63;49.75
21803;BME280;18591;47.080;22.214;2022-07-29T05:28:24;99545.47;;;26.75;49.13
21803;BME280;18591;47.080;22.214;2022-07-29T05:30:26;99545.78;;;26.71;49.39
21803;BME280;18591;47.080;22.214;2022-07-29T05:32:28;99548.59;;;26.80;48.96
21803;BME280;18591;47.080;22.214;2022-07-29T05:34:31;99543.13;;;26.88;48.70
21803;BME280;18591;47.080;22.214;2022-07-29T05:36:33;99542.47;;;26.94;48.18
21803;BME280;18591;47.080;22.214;2022-07-29T05:38:35;99543.88;;;26.98;48.00
21803;BME280;18591;47.080;22.214;2022-07-29T05:40:37;99547.66;;;26.97;47.59
21803;BME280;18591;47.080;22.214;2022-07-29T05:42:39;99540.78;;;27.01;47.70
21803;BME280;18591;47.080;22.214;2022-07-29T05:44:41;99536.97;;;26.94;47.91
21803;BME280;18591;47.080;22.214;2022-07-29T05:46:43;99538.19;;;27.00;47.76
21803;BME280;18591;47.080;22.214;2022-07-29T05:48:45;99537.31;;;26.99;47.91
21803;BME280;18591;47.080;22.214;2022-07-29T05:50:47;99537.00;;;27.02;47.83
21803;BME280;18591;47.080;22.214;2022-07-29T05:52:49;99551.34;;;27.06;47.44
21803;BME280;18591;47.080;22.214;2022-07-29T05:54:51;99549.28;;;27.08;47.79
21803;BME280;18591;47.080;22.214;2022-07-29T05:56:53;99545.25;;;27.02;47.84
21803;BME280;18591;47.080;22.214;2022-07-29T05:58:55;99544.41;;;27.02;47.43
21803;BME280;18591;47.080;22.214;2022-07-29T06:00:56;99548.91;;;27.03;47.76
21803;BME280;18591;47.080;22.214;2022-07-29T06:03:02;99541.53;;;27.11;47.16
21803;BME280;18591;47.080;22.214;2022-07-29T06:05:04;99541.78;;;27.18;47.47
21803;BME280;18591;47.080;22.214;2022-07-29T06:07:11;99541.09;;;27.24;47.74
21803;BME280;18591;47.080;22.214;2022-07-29T06:09:13;99549.75;;;27.29;47.54
21803;BME280;18591;47.080;22.214;2022-07-29T06:11:15;99549.25;;;27.34;47.54
21803;BME280;18591;47.080;22.214;2022-07-29T06:13:17;99561.50;;;27.31;47.18
21803;BME280;18591;47.080;22.214;2022-07-29T06:15:19;99558.03;;;27.29;47.17
21803;BME280;18591;47.080;22.214;2022-07-29T06:17:21;99566.28;;;27.29;47.10
21803;BME280;18591;47.080;22.214;2022-07-29T06:19:23;99560.94;;;27.28;47.31
21803;BME280;18591;47.080;22.214;2022-07-29T06:21:25;99569.06;;;27.29;48.53
21803;BME280;18591;47.080;22.214;2022-07-29T06:23:27;99561.22;;;27.17;49.84
21803;BME280;18591;47.080;22.214;2022-07-29T06:25:29;99564.69;;;27.19;49.85
21803;BME280;18591;47.080;22.214;2022-07-29T06:27:31;99563.50;;;27.21;49.72
21803;BME280;18591;47.080;22.214;2022-07-29T06:29:34;99569.03;;;27.21;49.32
21803;BME280;18591;47.080;22.214;2022-07-29T06:31:37;99578.53;;;27.27;48.90
21803;BME280;18591;47.080;22.214;2022-07-29T06:33:39;99571.47;;;27.32;48.97
21803;BME280;18591;47.080;22.214;2022-07-29T06:35:40;99572.66;;;27.30;49.10
21803;BME280;18591;47.080;22.214;2022-07-29T06:37:52;99574.94;;;27.34;49.24
21803;BME280;18591;47.080;22.214;2022-07-29T06:40:00;99562.00;;;27.35;49.31
21803;BME280;18591;47.080;22.214;2022-07-29T06:42:20;99565.69;;;27.44;48.76
21803;BME280;18591;47.080;22.214;2022-07-29T06:44:22;99556.38;;;27.45;49.60
21803;BME280;18591;47.080;22.214;2022-07-29T06:46:24;99562.41;;;27.48;49.03
21803;BME280;18591;47.080;22.214;2022-07-29T06:48:27;99558.81;;;27.56;48.51
21803;BME280;18591;47.080;22.214;2022-07-29T06:50:29;99555.56;;;27.61;48.42
21803;BME280;18591;47.080;22.214;2022-07-29T06:52:31;99561.91;;;27.61;48.75
21803;BME280;18591;47.080;22.214;2022-07-29T06:54:33;99559.03;;;27.71;48.17
21803;BME280;18591;47.080;22.214;2022-07-29T06:56:36;99560.94;;;27.78;47.99
21803;BME280;18591;47.080;22.214;2022-07-29T06:58:40;99556.66;;;27.84;47.83
21803;BME280;18591;47.080;22.214;2022-07-29T07:00:43;99561.69;;;27.89;47.85
21803;BME280;18591;47.080;22.214;2022-07-29T07:02:46;99562.19;;;27.92;48.08
21803;BME280;18591;47.080;22.214;2022-07-29T07:04:48;99563.25;;;27.91;47.83
21803;BME280;18591;47.080;22.214;2022-07-29T07:06:50;99559.44;;;27.92;47.87
21803;BME280;18591;47.080;22.214;2022-07-29T07:08:53;99559.63;;;27.99;47.82
21803;BME280;18591;47.080;22.214;2022-07-29T07:10:55;99562.59;;;28.06;46.91
21803;BME280;18591;47.080;22.214;2022-07-29T07:12:59;99566.56;;;28.11;47.12
21803;BME280;18591;47.080;22.214;2022-07-29T07:15:01;99564.31;;;28.15;47.07
21803;BME280;18591;47.080;22.214;2022-07-29T07:17:03;99562.78;;;28.29;47.17
21803;BME280;18591;47.080;22.214;2022-07-29T07:19:05;99555.69;;;28.42;46.61
21803;BME280;18591;47.080;22.214;2022-07-29T07:21:07;99555.72;;;28.51;45.98
21803;BME280;18591;47.080;22.214;2022-07-29T07:23:09;99552.78;;;28.52;45.65
21803;BME280;18591;47.080;22.214;2022-07-29T07:25:11;99553.28;;;28.64;46.04
21803;BME280;18591;47.080;22.214;2022-07-29T07:27:13;99556.19;;;28.79;45.58
21803;BME280;18591;47.080;22.214;2022-07-29T07:29:15;99562.91;;;28.93;45.05
21803;BME280;18591;47.080;22.214;2022-07-29T07:31:17;99557.75;;;29.06;44.70
21803;BME280;18591;47.080;22.214;2022-07-29T07:33:20;99561.13;;;29.24;44.58
21803;BME280;18591;47.080;22.214;2022-07-29T07:35:22;99559.66;;;29.45;44.90
21803;BME280;18591;47.080;22.214;2022-07-29T07:37:24;99569.59;;;29.70;44.06
21803;BME280;18591;47.080;22.214;2022-07-29T07:39:26;99564.16;;;29.85;43.63
21803;BME280;18591;47.080;22.214;2022-07-29T07:41:28;99563.72;;;29.97;43.39
21803;BME280;18591;47.080;22.214;2022-07-29T07:43:33;99567.44;;;30.12;43.05
21803;BME280;18591;47.080;22.214;2022-07-29T07:45:35;99565.47;;;30.21;42.50
21803;BME280;18591;47.080;22.214;2022-07-29T07:47:39;99565.94;;;30.32;42.09
21803;BME280;18591;47.080;22.214;2022-07-29T07:49:41;99567.47;;;30.35;41.20
21803;BME280;18591;47.080;22.214;2022-07-29T07:51:45;99568.47;;;30.42;42.21
21803;BME280;18591;47.080;22.214;2022-07-29T07:53:51;99571.84;;;30.52;41.75
21803;BME280;18591;47.080;22.214;2022-07-29T07:55:54;99569.84;;;30.61;41.24
21803;BME280;18591;47.080;22.214;2022-07-29T07:58:13;99569.75;;;30.69;41.16
21803;BME280;18591;47.080;22.214;2022-07-29T08:00:16;99574.34;;;30.77;41.63
21803;BME280;18591;47.080;22.214;2022-07-29T08:02:18;99580.75;;;30.86;41.46
21803;BME280;18591;47.080;22.214;2022-07-29T08:04:20;99577.03;;;30.93;41.48
21803;BME280;18591;47.080;22.214;2022-07-29T08:06:28;99572.34;;;31.09;41.26
21803;BME280;18591;47.080;22.214;2022-07-29T08:08:30;99568.53;;;31.24;41.10
21803;BME280;18591;47.080;22.214;2022-07-29T08:10:32;99567.34;;;31.34;40.89
21803;BME280;18591;47.080;22.214;2022-07-29T08:12:53;99572.25;;;31.46;40.67
21803;BME280;18591;47.080;22.214;2022-07-29T08:14:55;99577.97;;;31.60;40.74
21803;BME280;18591;47.080;22.214;2022-07-29T08:16:57;99575.00;;;31.76;40.10
21803;BME280;18591;47.080;22.214;2022-07-29T08:18:59;99577.84;;;31.98;40.17
21803;BME280;18591;47.080;22.214;2022-07-29T08:21:01;99573.56;;;32.17;40.03
21803;BME280;18591;47.080;22.214;2022-07-29T08:23:03;99574.09;;;32.27;39.52
21803;BME280;18591;47.080;22.214;2022-07-29T08:25:07;99571.84;;;32.37;39.44
21803;BME280;18591;47.080;22.214;2022-07-29T08:27:12;99580.72;;;32.47;39.77
21803;BME280;18591;47.080;22.214;2022-07-29T08:29:35;99578.22;;;32.52;39.61
21803;BME280;18591;47.080;22.214;2022-07-29T08:31:40;99580.00;;;32.60;38.82
21803;BME280;18591;47.080;22.214;2022-07-29T08:33:42;99578.34;;;32.66;39.03
21803;BME280;18591;47.080;22.214;2022-07-29T08:35:44;99576.25;;;32.74;38.85
21803;BME280;18591;47.080;22.214;2022-07-29T08:37:47;99580.41;;;32.85;38.13
21803;BME280;18591;47.080;22.214;2022-07-29T08:39:49;99574.94;;;32.98;38.54
21803;BME280;18591;47.080;22.214;2022-07-29T08:41:51;99579.50;;;33.06;38.30
21803;BME280;18591;47.080;22.214;2022-07-29T08:43:57;99578.91;;;33.11;38.18
21803;BME280;18591;47.080;22.214;2022-07-29T08:46:00;99578.13;;;33.17;37.91
21803;BME280;18591;47.080;22.214;2022-07-29T08:48:02;99576.44;;;33.23;37.95
21803;BME280;18591;47.080;22.214;2022-07-29T08:50:05;99575.81;;;33.27;37.80
21803;BME280;18591;47.080;22.214;2022-07-29T08:52:10;99571.34;;;33.33;37.77
21803;BME280;18591;47.080;22.214;2022-07-29T08:54:18;99570.94;;;33.36;37.24
21803;BME280;18591;47.080;22.214;2022-07-29T08:56:20;99575.22;;;33.38;36.09
21803;BME280;18591;47.080;22.214;2022-07-29T08:58:23;99566.69;;;33.40;35.68
21803;BME280;18591;47.080;22.214;2022-07-29T09:00:26;99563.47;;;33.43;36.45
21803;BME280;18591;47.080;22.214;2022-07-29T09:02:33;99566.28;;;33.50;35.72
21803;BME280;18591;47.080;22.214;2022-07-29T09:04:36;99568.69;;;33.53;36.61
21803;BME280;18591;47.080;22.214;2022-07-29T09:06:44;99573.69;;;33.64;36.00
21803;BME280;18591;47.080;22.214;2022-07-29T09:08:47;99572.44;;;33.73;35.70
21803;BME280;18591;47.080;22.214;2022-07-29T09:10:49;99566.25;;;33.85;35.76
21803;BME280;18591;47.080;22.214;2022-07-29T09:12:54;99566.28;;;33.98;35.71
21803;BME280;18591;47.080;22.214;2022-07-29T09:14:56;99564.84;;;34.09;35.30
21803;BME280;18591;47.080;22.214;2022-07-29T09:16:58;99563.13;;;34.14;35.72
21803;BME280;18591;47.080;22.214;2022-07-29T09:19:19;99565.94;;;34.14;34.67
21803;BME280;18591;47.080;22.214;2022-07-29T09:21:21;99557.81;;;34.26;34.88
21803;BME280;18591;47.080;22.214;2022-07-29T09:26:06;99556.09;;;34.25;33.59
21803;BME280;18591;47.080;22.214;2022-07-29T09:28:13;99554.16;;;34.19;33.89
21803;BME280;18591;47.080;22.214;2022-07-29T09:30:15;99555.03;;;34.26;33.95
21803;BME280;18591;47.080;22.214;2022-07-29T09:32:33;99561.47;;;34.33;34.15
21803;BME280;18591;47.080;22.214;2022-07-29T09:34:35;99548.19;;;34.35;34.22
21803;BME280;18591;47.080;22.214;2022-07-29T09:36:46;99548.16;;;34.42;33.97
21803;BME280;18591;47.080;22.214;2022-07-29T09:38:59;99546.25;;;34.56;32.78
21803;BME280;18591;47.080;22.214;2022-07-29T09:41:04;99536.41;;;34.73;33.60
21803;BME280;18591;47.080;22.214;2022-07-29T09:43:11;99526.94;;;34.81;33.18
21803;BME280;18591;47.080;22.214;2022-07-29T09:45:43;99531.03;;;34.85;31.96
21803;BME280;18591;47.080;22.214;2022-07-29T09:47:46;99529.06;;;34.99;32.79
21803;BME280;18591;47.080;22.214;2022-07-29T09:49:57;99533.19;;;35.09;32.69
21803;BME280;18591;47.080;22.214;2022-07-29T09:52:09;99516.63;;;35.15;32.50
21803;BME280;18591;47.080;22.214;2022-07-29T09:54:25;99521.53;;;35.19;31.55
21803;BME280;18591;47.080;22.214;2022-07-29T09:56:39;99513.16;;;35.26;32.32
21803;BME280;18591;47.080;22.214;2022-07-29T09:58:41;99509.50;;;35.25;31.96
21803;BME280;18591;47.080;22.214;2022-07-29T10:00:44;99502.63;;;35.21;32.05
21803;BME280;18591;47.080;22.214;2022-07-29T10:02:47;99516.59;;;35.28;32.23
21803;BME280;18591;47.080;22.214;2022-07-29T10:04:50;99504.31;;;35.36;31.86
21803;BME280;18591;47.080;22.214;2022-07-29T10:06:56;99511.59;;;35.43;32.14
21803;BME280;18591;47.080;22.214;2022-07-29T10:09:09;99506.81;;;35.50;31.75
21803;BME280;18591;47.080;22.214;2022-07-29T10:11:16;99507.91;;;35.49;31.15
21803;BME280;18591;47.080;22.214;2022-07-29T10:13:18;99504.41;;;35.61;31.87
21803;BME280;18591;47.080;22.214;2022-07-29T10:15:22;99504.22;;;35.62;31.30
21803;BME280;18591;47.080;22.214;2022-07-29T10:17:25;99504.63;;;35.66;31.50
21803;BME280;18591;47.080;22.214;2022-07-29T10:19:30;99490.22;;;35.69;31.81
21803;BME280;18591;47.080;22.214;2022-07-29T10:21:33;99491.66;;;35.78;30.94
21803;BME280;18591;47.080;22.214;2022-07-29T10:23:38;99482.44;;;35.71;30.76
21803;BME280;18591;47.080;22.214;2022-07-29T10:25:47;99475.59;;;35.67;30.76
21803;BME280;18591;47.080;22.214;2022-07-29T10:27:50;99476.63;;;35.72;30.93
21803;BME280;18591;47.080;22.214;2022-07-29T10:29:53;99474.25;;;35.76;30.61
21803;BME280;18591;47.080;22.214;2022-07-29T10:32:19;99474.94;;;35.71;29.97
21803;BME280;18591;47.080;22.214;2022-07-29T10:37:15;99467.50;;;35.90;30.56
21803;BME280;18591;47.080;22.214;2022-07-29T10:41:56;99461.72;;;36.17;30.37
21803;BME280;18591;47.080;22.214;2022-07-29T10:44:02;99470.31;;;36.22;30.38
21803;BME280;18591;47.080;22.214;2022-07-29T10:46:05;99460.59;;;36.25;29.99
21803;BME280;18591;47.080;22.214;2022-07-29T10:48:08;99462.38;;;36.19;29.89
21803;BME280;18591;47.080;22.214;2022-07-29T10:50:11;99460.31;;;36.08;29.92
21803;BME280;18591;47.080;22.214;2022-07-29T10:52:17;99451.09;;;36.07;30.35
21803;BME280;18591;47.080;22.214;2022-07-29T10:56:40;99472.78;;;36.05;29.96
21803;BME280;18591;47.080;22.214;2022-07-29T10:58:44;99457.28;;;36.09;30.05
21803;BME280;18591;47.080;22.214;2022-07-29T11:00:54;99454.28;;;36.04;29.32
21803;BME280;18591;47.080;22.214;2022-07-29T11:02:58;99450.63;;;36.04;29.66
21803;BME280;18591;47.080;22.214;2022-07-29T11:05:03;99452.19;;;36.00;29.81
21803;BME280;18591;47.080;22.214;2022-07-29T11:07:07;99452.19;;;36.00;29.49
21803;BME280;18591;47.080;22.214;2022-07-29T11:09:19;99453.91;;;35.94;29.74
21803;BME280;18591;47.080;22.214;2022-07-29T11:11:35;99452.00;;;35.94;29.63